aviador You're here:

EPGD Decoded Metar

GDANSK in POLAND
Report Time2017-11-21 05:30:00
UTC Time2017-11-21 06:00:50
Flight Rules vfr VFR
WindVRB at 02 kt
Visibility9999 m
Phenomena:N/A
Clouds:N/A
Expected CloudBase > 400 ft AGL from Temp-Dew spread
CeilingNone
Temp-3°C (ISA -17)
Dew Point-4°C (93% RH)
AAT-6.2°C
QNH1010 hPa
Density Alt-1,483 ft
Elevation453 ft
Report Wrong Elevation
Raw Report
EPGD 210530Z VRB02KT CAVOK M03/M04 Q1010=

Extra information for EPGD:More info

Metar Taf Metar & Taf Last 4 Metars F.Rules Stats Wind Profile Meteogram Temp Stats Airport Information Weather charts Add Link Nearby VenuesMetar ALERT Operation Metar Decoded Social comments